Stocks held by HDFC Multi Cap Fund

#Stock NamePrevious Number of SharesPrevious DateCurrent Number of SharesPercentage ChangeLast Changed
1CIE Automotive India Ltd6,966,7842024-07-212,729,530-60.82%2024-07-22
2Bajel Projects Ltd3,062,0712024-07-21285,802-90.67%2024-07-22
3Archean Chemical Industries Ltd496,0732024-07-211,095,175120.77%2024-07-22
4Aarti Pharmalabs Ltd5192024-07-21428,83482,526.97%2024-07-22
5360 ONE WAM Ltd994,0682024-07-21994,0680.00%2024-07-22
6Voltamp Transformers Ltd864,3982024-07-2126,016-96.99%2024-07-22
7Vesuvius India Ltd288,0002024-07-21387,77334.64%2024-07-22
8Varroc Engineering Ltd496,0802024-07-21496,0800.00%2024-07-22
9Great Eastern Shipping Company Ltd (GESHIP)750,0002024-07-21650,000-13.33%2024-07-22
10Techno Electric & Engineering Company Ltd796,2572024-07-21900,00013.03%2024-07-22
11TD Power Systems Ltd (TDPS)1,462,1222024-07-211,772,26921.21%2024-07-22
12Suprajit Engineering Ltd505,7382024-07-21400,000-20.91%2024-07-22
13Shoppers Stop Ltd3,603,2592024-07-21413,961-88.51%2024-07-22
14Rallis India Ltd4,981,5742024-07-21768,907-84.56%2024-07-22
15Orient Cement Ltd5,865,2682024-07-211,110,000-81.08%2024-07-22
16Nilkamal Ltd724,3002024-07-21149,493-79.36%2024-07-22
17Navin Fluorine International Ltd106,4262024-07-21106,4260.00%2024-07-22
18Motilal Oswal Financial Services Ltd2,9222024-07-21420,00014,273.72%2024-07-22
19MM Forgings Ltd (MMFL)290,6992024-07-21290,6990.00%2024-07-22
20Elecon Engineering Company Ltd100,0002024-07-21600,000500.00%2024-07-22
21Chambal Fertilisers & Chemicals Ltd4,389,4712024-07-211,860,600-57.61%2024-07-22
22Chalet Hotels Ltd3,545,6002024-07-21900,000-74.62%2024-07-22
23Centum Electronics Ltd536,2112024-07-21536,2110.00%2024-07-22
24Birla Corporation Ltd2,670,1322024-07-21422,983-84.16%2024-07-22
25Bajaj Consumer Care Ltd6,681,2672024-07-211,164,869-82.57%2024-07-22
26Advanced Enzyme Technologies Ltd115,9182024-07-21507,664337.95%2024-07-22
27Aditya Birla Capital Ltd5,864,4002024-07-212,600,000-55.66%2024-07-22
28Aarti Industries Ltd535,0002024-07-21515,339-3.67%2024-07-22
29TCI Express Ltd288,7652024-07-21132,800-54.01%2024-07-22

About the Author

Author Avatar
Getaka

Getaka, CFA, a financial analyst with 15 years of experience in the industry. Getaka holds an MBA degree and the Chartered Financial Analyst designation, demonstrating his profound understanding of financial analysis and investment management. Throughout his career, he has conducted numerous financial analyses and due diligence processes for companies in the industry, and has a strong track record of identifying key trends and opportunities. He leverages his expertise to deliver a thorough financial analysis of a company, encompassing its financial performance, key ratios, future prospects, and risks. Getaka is committed to providing accurate, reliable, and trustworthy information to help readers make informed decisions about their finances and investments.